sensor_id;sensor_type;location;lat;lon;timestamp;P1;durP1;ratioP1;P2;durP2;ratioP2
66593;SDS011;53450;42.584;23.366;2024-03-17T00:00:50;20.87;;;15.10;;
66593;SDS011;53450;42.584;23.366;2024-03-17T00:03:15;24.30;;;15.33;;
66593;SDS011;53450;42.584;23.366;2024-03-17T00:05:41;38.13;;;20.00;;
66593;SDS011;53450;42.584;23.366;2024-03-17T00:08:07;31.13;;;18.17;;
66593;SDS011;53450;42.584;23.366;2024-03-17T00:10:33;29.23;;;18.83;;
66593;SDS011;53450;42.584;23.366;2024-03-17T00:12:59;28.23;;;16.50;;
66593;SDS011;53450;42.584;23.366;2024-03-17T00:15:25;27.67;;;17.90;;
66593;SDS011;53450;42.584;23.366;2024-03-17T00:17:50;27.03;;;16.50;;
66593;SDS011;53450;42.584;23.366;2024-03-17T00:20:16;25.43;;;16.10;;
66593;SDS011;53450;42.584;23.366;2024-03-17T00:25:19;32.13;;;15.57;;
66593;SDS011;53450;42.584;23.366;2024-03-17T00:27:44;28.67;;;16.77;;
66593;SDS011;53450;42.584;23.366;2024-03-17T00:30:11;27.53;;;17.03;;
66593;SDS011;53450;42.584;23.366;2024-03-17T00:32:41;33.10;;;18.90;;
66593;SDS011;53450;42.584;23.366;2024-03-17T00:35:07;26.60;;;18.17;;
66593;SDS011;53450;42.584;23.366;2024-03-17T00:37:35;32.67;;;19.00;;
66593;SDS011;53450;42.584;23.366;2024-03-17T00:40:02;27.13;;;18.60;;
66593;SDS011;53450;42.584;23.366;2024-03-17T00:42:28;33.67;;;18.53;;
66593;SDS011;53450;42.584;23.366;2024-03-17T00:44:54;27.80;;;18.00;;
66593;SDS011;53450;42.584;23.366;2024-03-17T00:47:20;34.37;;;18.57;;
66593;SDS011;53450;42.584;23.366;2024-03-17T00:49:46;32.00;;;17.90;;
66593;SDS011;53450;42.584;23.366;2024-03-17T00:52:12;30.70;;;18.77;;
66593;SDS011;53450;42.584;23.366;2024-03-17T00:54:40;26.87;;;17.27;;
66593;SDS011;53450;42.584;23.366;2024-03-17T00:57:07;32.53;;;18.40;;
66593;SDS011;53450;42.584;23.366;2024-03-17T00:59:32;31.63;;;19.40;;
66593;SDS011;53450;42.584;23.366;2024-03-17T01:01:58;32.30;;;19.47;;
66593;SDS011;53450;42.584;23.366;2024-03-17T01:04:24;33.17;;;17.60;;
66593;SDS011;53450;42.584;23.366;2024-03-17T01:06:50;37.37;;;19.40;;
66593;SDS011;53450;42.584;23.366;2024-03-17T01:09:15;33.83;;;19.97;;
66593;SDS011;53450;42.584;23.366;2024-03-17T01:11:41;39.03;;;18.53;;
66593;SDS011;53450;42.584;23.366;2024-03-17T01:14:06;36.00;;;19.27;;
66593;SDS011;53450;42.584;23.366;2024-03-17T01:16:33;35.07;;;21.33;;
66593;SDS011;53450;42.584;23.366;2024-03-17T01:18:59;38.17;;;22.13;;
66593;SDS011;53450;42.584;23.366;2024-03-17T01:21:24;35.57;;;20.83;;
66593;SDS011;53450;42.584;23.366;2024-03-17T01:23:50;34.83;;;20.03;;
66593;SDS011;53450;42.584;23.366;2024-03-17T01:26:16;34.47;;;17.83;;
66593;SDS011;53450;42.584;23.366;2024-03-17T01:28:42;28.90;;;16.73;;
66593;SDS011;53450;42.584;23.366;2024-03-17T01:31:07;30.87;;;17.27;;
66593;SDS011;53450;42.584;23.366;2024-03-17T01:33:34;32.80;;;18.50;;
66593;SDS011;53450;42.584;23.366;2024-03-17T01:36:00;32.90;;;18.57;;
66593;SDS011;53450;42.584;23.366;2024-03-17T01:38:26;38.63;;;19.07;;
66593;SDS011;53450;42.584;23.366;2024-03-17T01:40:52;37.60;;;20.23;;
66593;SDS011;53450;42.584;23.366;2024-03-17T01:43:17;43.47;;;20.90;;
66593;SDS011;53450;42.584;23.366;2024-03-17T01:45:43;42.53;;;19.40;;
66593;SDS011;53450;42.584;23.366;2024-03-17T01:48:11;41.27;;;19.27;;
66593;SDS011;53450;42.584;23.366;2024-03-17T01:50:40;30.98;;;17.52;;
66593;SDS011;53450;42.584;23.366;2024-03-17T01:53:07;31.60;;;16.67;;
66593;SDS011;53450;42.584;23.366;2024-03-17T01:55:36;28.43;;;15.43;;
66593;SDS011;53450;42.584;23.366;2024-03-17T01:58:03;24.20;;;14.47;;
66593;SDS011;53450;42.584;23.366;2024-03-17T02:00:32;25.47;;;14.40;;
66593;SDS011;53450;42.584;23.366;2024-03-17T02:02:59;29.57;;;14.43;;
66593;SDS011;53450;42.584;23.366;2024-03-17T02:05:25;26.57;;;15.17;;
66593;SDS011;53450;42.584;23.366;2024-03-17T02:07:52;27.33;;;15.27;;
66593;SDS011;53450;42.584;23.366;2024-03-17T02:10:17;25.73;;;15.37;;
66593;SDS011;53450;42.584;23.366;2024-03-17T02:12:43;24.00;;;15.10;;
66593;SDS011;53450;42.584;23.366;2024-03-17T02:15:09;29.17;;;15.23;;
66593;SDS011;53450;42.584;23.366;2024-03-17T02:17:34;22.83;;;13.90;;
66593;SDS011;53450;42.584;23.366;2024-03-17T02:20:00;24.27;;;14.77;;
66593;SDS011;53450;42.584;23.366;2024-03-17T02:22:29;27.77;;;15.43;;
66593;SDS011;53450;42.584;23.366;2024-03-17T02:24:55;25.13;;;13.90;;
66593;SDS011;53450;42.584;23.366;2024-03-17T02:27:21;27.97;;;13.80;;
66593;SDS011;53450;42.584;23.366;2024-03-17T02:29:46;32.80;;;14.60;;
66593;SDS011;53450;42.584;23.366;2024-03-17T02:32:12;20.77;;;13.50;;
66593;SDS011;53450;42.584;23.366;2024-03-17T02:34:38;30.37;;;14.10;;
66593;SDS011;53450;42.584;23.366;2024-03-17T02:37:04;23.17;;;13.80;;
66593;SDS011;53450;42.584;23.366;2024-03-17T02:39:32;24.73;;;14.80;;
66593;SDS011;53450;42.584;23.366;2024-03-17T02:42:02;25.93;;;14.73;;
66593;SDS011;53450;42.584;23.366;2024-03-17T02:44:35;23.47;;;14.83;;
66593;SDS011;53450;42.584;23.366;2024-03-17T02:47:02;27.73;;;15.03;;
66593;SDS011;53450;42.584;23.366;2024-03-17T02:49:29;22.53;;;14.50;;
66593;SDS011;53450;42.584;23.366;2024-03-17T02:52:05;21.67;;;13.60;;
66593;SDS011;53450;42.584;23.366;2024-03-17T02:54:34;22.53;;;13.73;;
66593;SDS011;53450;42.584;23.366;2024-03-17T02:57:01;21.37;;;13.33;;
66593;SDS011;53450;42.584;23.366;2024-03-17T02:59:27;19.77;;;13.20;;
66593;SDS011;53450;42.584;23.366;2024-03-17T03:01:52;22.27;;;12.60;;
66593;SDS011;53450;42.584;23.366;2024-03-17T03:04:18;20.80;;;12.83;;
66593;SDS011;53450;42.584;23.366;2024-03-17T03:06:44;22.33;;;13.47;;
66593;SDS011;53450;42.584;23.366;2024-03-17T03:09:09;20.20;;;13.30;;
66593;SDS011;53450;42.584;23.366;2024-03-17T03:11:39;23.27;;;14.00;;
66593;SDS011;53450;42.584;23.366;2024-03-17T03:14:05;23.87;;;14.00;;
66593;SDS011;53450;42.584;23.366;2024-03-17T03:16:32;23.53;;;14.63;;
66593;SDS011;53450;42.584;23.366;2024-03-17T03:19:01;27.33;;;14.40;;
66593;SDS011;53450;42.584;23.366;2024-03-17T03:21:27;19.63;;;12.73;;
66593;SDS011;53450;42.584;23.366;2024-03-17T03:23:52;20.13;;;13.23;;
66593;SDS011;53450;42.584;23.366;2024-03-17T03:26:18;23.20;;;13.77;;
66593;SDS011;53450;42.584;23.366;2024-03-17T03:28:43;21.03;;;14.43;;
66593;SDS011;53450;42.584;23.366;2024-03-17T03:31:13;22.27;;;13.03;;
66593;SDS011;53450;42.584;23.366;2024-03-17T03:33:45;18.80;;;11.93;;
66593;SDS011;53450;42.584;23.366;2024-03-17T03:38:37;22.13;;;11.63;;
66593;SDS011;53450;42.584;23.366;2024-03-17T03:41:06;22.77;;;12.27;;
66593;SDS011;53450;42.584;23.366;2024-03-17T03:43:33;25.13;;;14.00;;
66593;SDS011;53450;42.584;23.366;2024-03-17T03:46:02;21.07;;;12.80;;
66593;SDS011;53450;42.584;23.366;2024-03-17T03:48:28;18.27;;;11.87;;
66593;SDS011;53450;42.584;23.366;2024-03-17T03:50:54;21.17;;;12.13;;
66593;SDS011;53450;42.584;23.366;2024-03-17T03:53:20;21.70;;;12.23;;
66593;SDS011;53450;42.584;23.366;2024-03-17T03:55:49;22.10;;;12.30;;
66593;SDS011;53450;42.584;23.366;2024-03-17T03:58:14;19.90;;;12.80;;
66593;SDS011;53450;42.584;23.366;2024-03-17T04:00:40;18.40;;;12.17;;
66593;SDS011;53450;42.584;23.366;2024-03-17T04:03:06;18.13;;;11.97;;
66593;SDS011;53450;42.584;23.366;2024-03-17T04:05:32;28.83;;;12.57;;
66593;SDS011;53450;42.584;23.366;2024-03-17T04:07:59;97.90;;;43.73;;
66593;SDS011;53450;42.584;23.366;2024-03-17T04:10:25;80.33;;;31.57;;
66593;SDS011;53450;42.584;23.366;2024-03-17T04:12:52;32.97;;;14.83;;
66593;SDS011;53450;42.584;23.366;2024-03-17T04:15:18;21.80;;;13.03;;
66593;SDS011;53450;42.584;23.366;2024-03-17T04:17:44;22.67;;;14.17;;
66593;SDS011;53450;42.584;23.366;2024-03-17T04:20:10;27.23;;;13.53;;
66593;SDS011;53450;42.584;23.366;2024-03-17T04:22:42;23.57;;;12.97;;
66593;SDS011;53450;42.584;23.366;2024-03-17T04:25:08;20.63;;;14.00;;
66593;SDS011;53450;42.584;23.366;2024-03-17T04:27:34;24.13;;;13.23;;
66593;SDS011;53450;42.584;23.366;2024-03-17T04:30:00;19.00;;;12.40;;
66593;SDS011;53450;42.584;23.366;2024-03-17T04:32:26;21.57;;;12.20;;
66593;SDS011;53450;42.584;23.366;2024-03-17T04:34:56;24.90;;;14.07;;
66593;SDS011;53450;42.584;23.366;2024-03-17T04:37:21;32.07;;;18.93;;
66593;SDS011;53450;42.584;23.366;2024-03-17T04:39:47;43.77;;;25.00;;
66593;SDS011;53450;42.584;23.366;2024-03-17T04:42:14;30.53;;;18.63;;
66593;SDS011;53450;42.584;23.366;2024-03-17T04:44:41;22.03;;;15.03;;
66593;SDS011;53450;42.584;23.366;2024-03-17T04:47:08;25.13;;;14.83;;
66593;SDS011;53450;42.584;23.366;2024-03-17T04:49:44;26.03;;;16.80;;
66593;SDS011;53450;42.584;23.366;2024-03-17T04:52:10;37.13;;;18.27;;
66593;SDS011;53450;42.584;23.366;2024-03-17T04:54:37;54.93;;;23.67;;
66593;SDS011;53450;42.584;23.366;2024-03-17T04:57:02;46.23;;;22.47;;
66593;SDS011;53450;42.584;23.366;2024-03-17T04:59:29;35.57;;;19.53;;
66593;SDS011;53450;42.584;23.366;2024-03-17T05:01:54;26.37;;;14.67;;
66593;SDS011;53450;42.584;23.366;2024-03-17T05:04:20;23.83;;;15.47;;
66593;SDS011;53450;42.584;23.366;2024-03-17T05:06:46;30.70;;;15.43;;
66593;SDS011;53450;42.584;23.366;2024-03-17T05:09:15;17.97;;;12.10;;
66593;SDS011;53450;42.584;23.366;2024-03-17T05:11:52;28.47;;;14.77;;
66593;SDS011;53450;42.584;23.366;2024-03-17T05:14:20;38.58;;;17.65;;
66593;SDS011;53450;42.584;23.366;2024-03-17T05:16:49;31.77;;;17.43;;
66593;SDS011;53450;42.584;23.366;2024-03-17T05:19:21;33.50;;;18.30;;
66593;SDS011;53450;42.584;23.366;2024-03-17T05:21:51;34.47;;;18.03;;
66593;SDS011;53450;42.584;23.366;2024-03-17T05:24:23;27.92;;;16.75;;
66593;SDS011;53450;42.584;23.366;2024-03-17T05:26:51;32.43;;;18.07;;
66593;SDS011;53450;42.584;23.366;2024-03-17T05:29:18;35.20;;;18.90;;
66593;SDS011;53450;42.584;23.366;2024-03-17T05:31:44;36.17;;;18.97;;
66593;SDS011;53450;42.584;23.366;2024-03-17T05:34:12;39.17;;;20.83;;
66593;SDS011;53450;42.584;23.366;2024-03-17T05:36:46;41.63;;;22.90;;
66593;SDS011;53450;42.584;23.366;2024-03-17T05:39:17;42.28;;;22.17;;
66593;SDS011;53450;42.584;23.366;2024-03-17T05:41:48;36.23;;;19.83;;
66593;SDS011;53450;42.584;23.366;2024-03-17T05:44:19;39.40;;;20.23;;
66593;SDS011;53450;42.584;23.366;2024-03-17T05:46:47;35.42;;;19.00;;
66593;SDS011;53450;42.584;23.366;2024-03-17T05:49:21;33.63;;;19.33;;
66593;SDS011;53450;42.584;23.366;2024-03-17T05:54:28;26.50;;;16.30;;
66593;SDS011;53450;42.584;23.366;2024-03-17T05:56:59;25.88;;;16.23;;
66593;SDS011;53450;42.584;23.366;2024-03-17T05:59:30;32.47;;;17.77;;
66593;SDS011;53450;42.584;23.366;2024-03-17T06:01:59;27.38;;;16.95;;
66593;SDS011;53450;42.584;23.366;2024-03-17T06:04:36;23.95;;;15.88;;
66593;SDS011;53450;42.584;23.366;2024-03-17T06:07:03;25.13;;;13.63;;
66593;SDS011;53450;42.584;23.366;2024-03-17T06:09:58;22.70;;;14.00;;
66593;SDS011;53450;42.584;23.366;2024-03-17T06:12:30;22.80;;;13.50;;
66593;SDS011;53450;42.584;23.366;2024-03-17T06:14:58;27.70;;;13.98;;
66593;SDS011;53450;42.584;23.366;2024-03-17T06:17:25;21.83;;;13.90;;
66593;SDS011;53450;42.584;23.366;2024-03-17T06:20:07;20.35;;;13.27;;
66593;SDS011;53450;42.584;23.366;2024-03-17T06:23:09;27.25;;;15.15;;
66593;SDS011;53450;42.584;23.366;2024-03-17T06:25:43;23.77;;;15.30;;
66593;SDS011;53450;42.584;23.366;2024-03-17T06:28:10;24.38;;;15.35;;
66593;SDS011;53450;42.584;23.366;2024-03-17T06:30:40;27.38;;;15.60;;
66593;SDS011;53450;42.584;23.366;2024-03-17T06:33:12;23.65;;;15.70;;
66593;SDS011;53450;42.584;23.366;2024-03-17T06:35:40;31.83;;;14.98;;
66593;SDS011;53450;42.584;23.366;2024-03-17T06:38:06;27.23;;;15.00;;
66593;SDS011;53450;42.584;23.366;2024-03-17T06:40:39;22.23;;;14.30;;
66593;SDS011;53450;42.584;23.366;2024-03-17T06:43:10;30.48;;;16.48;;
66593;SDS011;53450;42.584;23.366;2024-03-17T06:45:41;34.35;;;19.02;;
66593;SDS011;53450;42.584;23.366;2024-03-17T06:48:19;30.50;;;17.80;;
66593;SDS011;53450;42.584;23.366;2024-03-17T06:50:55;55.83;;;24.42;;
66593;SDS011;53450;42.584;23.366;2024-03-17T06:53:24;22.35;;;14.98;;
66593;SDS011;53450;42.584;23.366;2024-03-17T06:58:26;30.20;;;17.52;;
66593;SDS011;53450;42.584;23.366;2024-03-17T07:00:53;29.23;;;17.98;;
66593;SDS011;53450;42.584;23.366;2024-03-17T07:03:23;28.63;;;17.83;;
66593;SDS011;53450;42.584;23.366;2024-03-17T07:05:54;30.55;;;16.98;;
66593;SDS011;53450;42.584;23.366;2024-03-17T07:08:21;31.83;;;18.00;;
66593;SDS011;53450;42.584;23.366;2024-03-17T07:10:54;30.92;;;18.58;;
66593;SDS011;53450;42.584;23.366;2024-03-17T07:13:24;30.63;;;16.30;;
66593;SDS011;53450;42.584;23.366;2024-03-17T07:15:50;30.67;;;18.02;;
66593;SDS011;53450;42.584;23.366;2024-03-17T07:18:15;28.00;;;16.55;;
66593;SDS011;53450;42.584;23.366;2024-03-17T07:20:42;27.55;;;15.93;;
66593;SDS011;53450;42.584;23.366;2024-03-17T07:23:11;34.58;;;17.60;;
66593;SDS011;53450;42.584;23.366;2024-03-17T07:25:36;28.40;;;16.42;;
66593;SDS011;53450;42.584;23.366;2024-03-17T07:28:02;30.95;;;16.98;;
66593;SDS011;53450;42.584;23.366;2024-03-17T07:30:34;28.10;;;17.55;;
66593;SDS011;53450;42.584;23.366;2024-03-17T07:33:00;28.90;;;16.08;;
66593;SDS011;53450;42.584;23.366;2024-03-17T07:35:26;26.17;;;17.05;;
66593;SDS011;53450;42.584;23.366;2024-03-17T07:37:54;25.50;;;14.57;;
66593;SDS011;53450;42.584;23.366;2024-03-17T07:40:23;25.35;;;16.95;;
66593;SDS011;53450;42.584;23.366;2024-03-17T07:42:48;27.75;;;17.50;;
66593;SDS011;53450;42.584;23.366;2024-03-17T07:45:14;25.05;;;15.43;;
66593;SDS011;53450;42.584;23.366;2024-03-17T07:47:43;28.02;;;16.98;;
66593;SDS011;53450;42.584;23.366;2024-03-17T07:50:09;31.63;;;17.63;;
66593;SDS011;53450;42.584;23.366;2024-03-17T07:52:34;27.58;;;17.05;;
66593;SDS011;53450;42.584;23.366;2024-03-17T07:55:03;29.42;;;16.88;;
66593;SDS011;53450;42.584;23.366;2024-03-17T07:57:29;31.40;;;15.82;;
66593;SDS011;53450;42.584;23.366;2024-03-17T07:59:55;25.48;;;15.52;;
66593;SDS011;53450;42.584;23.366;2024-03-17T08:02:20;22.20;;;14.85;;
66593;SDS011;53450;42.584;23.366;2024-03-17T08:04:46;32.28;;;17.08;;
66593;SDS011;53450;42.584;23.366;2024-03-17T08:07:12;26.25;;;14.50;;
66593;SDS011;53450;42.584;23.366;2024-03-17T08:09:37;28.30;;;16.63;;
66593;SDS011;53450;42.584;23.366;2024-03-17T08:12:03;23.55;;;15.90;;
66593;SDS011;53450;42.584;23.366;2024-03-17T08:14:29;29.58;;;17.05;;
66593;SDS011;53450;42.584;23.366;2024-03-17T08:16:55;33.88;;;15.27;;
66593;SDS011;53450;42.584;23.366;2024-03-17T08:19:21;26.65;;;15.55;;
66593;SDS011;53450;42.584;23.366;2024-03-17T08:21:47;27.83;;;15.48;;
66593;SDS011;53450;42.584;23.366;2024-03-17T08:24:12;23.67;;;15.13;;
66593;SDS011;53450;42.584;23.366;2024-03-17T08:26:38;24.50;;;16.08;;
66593;SDS011;53450;42.584;23.366;2024-03-17T08:29:07;29.38;;;16.27;;
66593;SDS011;53450;42.584;23.366;2024-03-17T08:31:36;30.50;;;16.92;;
66593;SDS011;53450;42.584;23.366;2024-03-17T08:34:05;28.80;;;15.77;;
66593;SDS011;53450;42.584;23.366;2024-03-17T08:36:30;26.63;;;15.38;;
66593;SDS011;53450;42.584;23.366;2024-03-17T08:38:59;34.05;;;17.45;;
66593;SDS011;53450;42.584;23.366;2024-03-17T08:41:27;31.17;;;17.58;;
66593;SDS011;53450;42.584;23.366;2024-03-17T08:43:59;23.08;;;15.55;;
66593;SDS011;53450;42.584;23.366;2024-03-17T08:46:26;29.60;;;17.02;;
66593;SDS011;53450;42.584;23.366;2024-03-17T08:48:55;26.73;;;16.17;;
66593;SDS011;53450;42.584;23.366;2024-03-17T08:51:21;29.55;;;15.30;;
66593;SDS011;53450;42.584;23.366;2024-03-17T08:53:46;33.67;;;16.88;;
66593;SDS011;53450;42.584;23.366;2024-03-17T08:56:13;34.60;;;17.85;;
66593;SDS011;53450;42.584;23.366;2024-03-17T08:58:38;23.70;;;14.88;;
66593;SDS011;53450;42.584;23.366;2024-03-17T09:01:05;27.33;;;17.45;;
66593;SDS011;53450;42.584;23.366;2024-03-17T09:03:34;33.80;;;16.60;;
66593;SDS011;53450;42.584;23.366;2024-03-17T09:06:00;26.88;;;16.50;;
66593;SDS011;53450;42.584;23.366;2024-03-17T09:08:26;33.35;;;15.68;;
66593;SDS011;53450;42.584;23.366;2024-03-17T09:10:58;21.02;;;12.18;;
66593;SDS011;53450;42.584;23.366;2024-03-17T09:13:24;19.88;;;13.00;;
66593;SDS011;53450;42.584;23.366;2024-03-17T09:15:58;25.13;;;14.45;;
66593;SDS011;53450;42.584;23.366;2024-03-17T09:18:30;21.10;;;12.90;;
66593;SDS011;53450;42.584;23.366;2024-03-17T09:21:01;26.27;;;14.85;;
66593;SDS011;53450;42.584;23.366;2024-03-17T09:23:30;26.42;;;15.40;;
66593;SDS011;53450;42.584;23.366;2024-03-17T09:26:03;30.33;;;14.65;;
66593;SDS011;53450;42.584;23.366;2024-03-17T09:28:38;29.50;;;14.93;;
66593;SDS011;53450;42.584;23.366;2024-03-17T09:31:04;27.40;;;14.45;;
66593;SDS011;53450;42.584;23.366;2024-03-17T09:33:36;18.35;;;12.63;;
66593;SDS011;53450;42.584;23.366;2024-03-17T09:36:04;19.10;;;10.57;;
66593;SDS011;53450;42.584;23.366;2024-03-17T09:38:31;15.40;;;10.90;;
66593;SDS011;53450;42.584;23.366;2024-03-17T09:41:00;13.98;;;9.77;;
66593;SDS011;53450;42.584;23.366;2024-03-17T09:43:27;12.15;;;8.20;;
66593;SDS011;53450;42.584;23.366;2024-03-17T09:45:54;14.63;;;8.30;;
66593;SDS011;53450;42.584;23.366;2024-03-17T09:48:23;6.97;;;4.57;;
66593;SDS011;53450;42.584;23.366;2024-03-17T09:50:53;9.80;;;5.28;;
66593;SDS011;53450;42.584;23.366;2024-03-17T09:53:27;7.30;;;5.40;;
66593;SDS011;53450;42.584;23.366;2024-03-17T09:55:54;12.65;;;6.72;;
66593;SDS011;53450;42.584;23.366;2024-03-17T09:58:23;12.20;;;6.25;;
66593;SDS011;53450;42.584;23.366;2024-03-17T10:00:48;8.13;;;4.70;;
66593;SDS011;53450;42.584;23.366;2024-03-17T10:06:24;6.68;;;4.45;;
66593;SDS011;53450;42.584;23.366;2024-03-17T10:08:53;4.22;;;3.00;;
66593;SDS011;53450;42.584;23.366;2024-03-17T10:11:20;2.88;;;2.58;;
66593;SDS011;53450;42.584;23.366;2024-03-17T10:16:37;4.15;;;3.50;;
66593;SDS011;53450;42.584;23.366;2024-03-17T10:19:07;8.68;;;4.50;;
66593;SDS011;53450;42.584;23.366;2024-03-17T10:21:39;5.90;;;3.33;;
66593;SDS011;53450;42.584;23.366;2024-03-17T10:24:06;15.05;;;4.22;;
66593;SDS011;53450;42.584;23.366;2024-03-17T10:29:23;3.55;;;2.90;;
66593;SDS011;53450;42.584;23.366;2024-03-17T10:31:52;4.60;;;3.53;;
66593;SDS011;53450;42.584;23.366;2024-03-17T10:34:19;3.72;;;3.33;;
66593;SDS011;53450;42.584;23.366;2024-03-17T10:36:45;7.28;;;3.70;;
66593;SDS011;53450;42.584;23.366;2024-03-17T10:39:24;5.32;;;3.90;;
66593;SDS011;53450;42.584;23.366;2024-03-17T10:42:00;9.98;;;4.22;;
66593;SDS011;53450;42.584;23.366;2024-03-17T10:44:28;10.35;;;3.90;;
66593;SDS011;53450;42.584;23.366;2024-03-17T10:46:54;8.25;;;4.32;;
66593;SDS011;53450;42.584;23.366;2024-03-17T10:49:29;6.72;;;4.60;;
66593;SDS011;53450;42.584;23.366;2024-03-17T10:51:57;10.10;;;4.88;;
66593;SDS011;53450;42.584;23.366;2024-03-17T10:54:24;6.25;;;4.90;;
66593;SDS011;53450;42.584;23.366;2024-03-17T10:56:54;6.57;;;4.60;;
66593;SDS011;53450;42.584;23.366;2024-03-17T10:59:23;11.45;;;5.15;;
66593;SDS011;53450;42.584;23.366;2024-03-17T11:02:27;7.45;;;5.13;;
66593;SDS011;53450;42.584;23.366;2024-03-17T11:04:59;9.23;;;5.78;;
66593;SDS011;53450;42.584;23.366;2024-03-17T11:07:26;29.42;;;13.25;;
66593;SDS011;53450;42.584;23.366;2024-03-17T11:09:53;9.82;;;5.55;;
66593;SDS011;53450;42.584;23.366;2024-03-17T11:20:35;10.00;;;4.07;;
66593;SDS011;53450;42.584;23.366;2024-03-17T11:23:04;6.18;;;4.03;;
66593;SDS011;53450;42.584;23.366;2024-03-17T11:27:59;6.68;;;4.68;;
66593;SDS011;53450;42.584;23.366;2024-03-17T11:39:07;6.70;;;4.80;;
66593;SDS011;53450;42.584;23.366;2024-03-17T11:41:40;6.57;;;4.75;;
66593;SDS011;53450;42.584;23.366;2024-03-17T11:49:36;7.93;;;5.00;;
66593;SDS011;53450;42.584;23.366;2024-03-17T11:52:15;8.77;;;5.30;;
66593;SDS011;53450;42.584;23.366;2024-03-17T11:54:42;7.88;;;5.38;;
66593;SDS011;53450;42.584;23.366;2024-03-17T11:59:52;9.70;;;5.32;;
66593;SDS011;53450;42.584;23.366;2024-03-17T12:02:25;10.05;;;5.90;;
66593;SDS011;53450;42.584;23.366;2024-03-17T12:04:52;10.27;;;5.55;;
66593;SDS011;53450;42.584;23.366;2024-03-17T12:07:26;13.55;;;7.75;;
66593;SDS011;53450;42.584;23.366;2024-03-17T12:09:57;6.72;;;5.20;;
66593;SDS011;53450;42.584;23.366;2024-03-17T12:12:29;9.82;;;5.70;;
66593;SDS011;53450;42.584;23.366;2024-03-17T12:15:01;12.35;;;5.43;;
66593;SDS011;53450;42.584;23.366;2024-03-17T12:17:28;12.77;;;5.00;;
66593;SDS011;53450;42.584;23.366;2024-03-17T12:19:54;11.05;;;7.07;;
66593;SDS011;53450;42.584;23.366;2024-03-17T12:22:24;21.15;;;12.68;;
66593;SDS011;53450;42.584;23.366;2024-03-17T12:24:55;7.80;;;5.85;;
66593;SDS011;53450;42.584;23.366;2024-03-17T12:27:22;9.10;;;5.32;;
66593;SDS011;53450;42.584;23.366;2024-03-17T12:29:49;6.50;;;5.03;;
66593;SDS011;53450;42.584;23.366;2024-03-17T12:32:16;7.03;;;4.72;;
66593;SDS011;53450;42.584;23.366;2024-03-17T12:34:44;10.77;;;5.25;;
66593;SDS011;53450;42.584;23.366;2024-03-17T12:37:18;8.98;;;4.93;;
66593;SDS011;53450;42.584;23.366;2024-03-17T12:39:47;11.07;;;5.75;;
66593;SDS011;53450;42.584;23.366;2024-03-17T12:42:15;6.03;;;4.47;;
66593;SDS011;53450;42.584;23.366;2024-03-17T12:44:52;5.53;;;4.40;;
66593;SDS011;53450;42.584;23.366;2024-03-17T12:47:24;4.30;;;3.75;;
66593;SDS011;53450;42.584;23.366;2024-03-17T12:49:51;4.93;;;4.43;;
66593;SDS011;53450;42.584;23.366;2024-03-17T12:52:25;5.47;;;4.25;;
66593;SDS011;53450;42.584;23.366;2024-03-17T13:00:45;5.90;;;4.38;;
66593;SDS011;53450;42.584;23.366;2024-03-17T13:03:21;8.18;;;4.47;;
66593;SDS011;53450;42.584;23.366;2024-03-17T13:05:49;9.27;;;4.95;;
66593;SDS011;53450;42.584;23.366;2024-03-17T13:08:20;10.45;;;5.57;;
66593;SDS011;53450;42.584;23.366;2024-03-17T13:10:46;8.35;;;4.63;;
66593;SDS011;53450;42.584;23.366;2024-03-17T13:13:12;9.75;;;6.30;;
66593;SDS011;53450;42.584;23.366;2024-03-17T13:15:41;15.65;;;5.95;;
66593;SDS011;53450;42.584;23.366;2024-03-17T13:18:11;12.32;;;5.38;;
66593;SDS011;53450;42.584;23.366;2024-03-17T13:20:47;8.23;;;5.15;;
66593;SDS011;53450;42.584;23.366;2024-03-17T13:23:18;9.85;;;6.53;;
66593;SDS011;53450;42.584;23.366;2024-03-17T13:25:44;9.10;;;6.10;;
66593;SDS011;53450;42.584;23.366;2024-03-17T13:28:13;11.70;;;6.75;;
66593;SDS011;53450;42.584;23.366;2024-03-17T13:30:39;8.65;;;6.18;;
66593;SDS011;53450;42.584;23.366;2024-03-17T13:33:06;8.93;;;5.13;;
66593;SDS011;53450;42.584;23.366;2024-03-17T13:35:42;8.98;;;6.28;;
66593;SDS011;53450;42.584;23.366;2024-03-17T13:38:09;8.30;;;5.55;;
66593;SDS011;53450;42.584;23.366;2024-03-17T13:40:37;8.15;;;6.15;;
66593;SDS011;53450;42.584;23.366;2024-03-17T13:43:03;13.50;;;9.05;;
66593;SDS011;53450;42.584;23.366;2024-03-17T13:45:33;11.27;;;6.82;;
66593;SDS011;53450;42.584;23.366;2024-03-17T13:48:04;8.15;;;5.40;;
66593;SDS011;53450;42.584;23.366;2024-03-17T13:50:30;10.38;;;6.88;;
66593;SDS011;53450;42.584;23.366;2024-03-17T13:52:56;8.27;;;6.18;;
66593;SDS011;53450;42.584;23.366;2024-03-17T13:55:23;16.45;;;8.48;;
66593;SDS011;53450;42.584;23.366;2024-03-17T13:57:51;10.85;;;7.15;;
66593;SDS011;53450;42.584;23.366;2024-03-17T14:00:25;10.55;;;7.90;;
66593;SDS011;53450;42.584;23.366;2024-03-17T14:02:52;10.13;;;7.00;;
66593;SDS011;53450;42.584;23.366;2024-03-17T14:05:20;10.55;;;6.95;;
66593;SDS011;53450;42.584;23.366;2024-03-17T14:07:47;10.20;;;7.85;;
66593;SDS011;53450;42.584;23.366;2024-03-17T14:10:14;31.08;;;18.55;;
66593;SDS011;53450;42.584;23.366;2024-03-17T14:12:44;25.38;;;16.92;;
66593;SDS011;53450;42.584;23.366;2024-03-17T14:15:11;28.63;;;17.73;;
66593;SDS011;53450;42.584;23.366;2024-03-17T14:17:38;62.47;;;29.33;;
66593;SDS011;53450;42.584;23.366;2024-03-17T14:20:07;49.30;;;25.13;;
66593;SDS011;53450;42.584;23.366;2024-03-17T14:22:39;20.23;;;11.50;;
66593;SDS011;53450;42.584;23.366;2024-03-17T14:25:10;13.93;;;8.32;;
66593;SDS011;53450;42.584;23.366;2024-03-17T14:27:39;17.95;;;11.23;;
66593;SDS011;53450;42.584;23.366;2024-03-17T14:30:05;23.92;;;15.02;;
66593;SDS011;53450;42.584;23.366;2024-03-17T14:32:31;22.48;;;10.07;;
66593;SDS011;53450;42.584;23.366;2024-03-17T14:34:57;11.35;;;8.40;;
66593;SDS011;53450;42.584;23.366;2024-03-17T14:37:23;14.70;;;10.63;;
66593;SDS011;53450;42.584;23.366;2024-03-17T14:39:51;12.68;;;9.07;;
66593;SDS011;53450;42.584;23.366;2024-03-17T14:42:18;39.13;;;26.67;;
66593;SDS011;53450;42.584;23.366;2024-03-17T14:44:45;22.70;;;16.38;;
66593;SDS011;53450;42.584;23.366;2024-03-17T14:47:11;19.83;;;13.73;;
66593;SDS011;53450;42.584;23.366;2024-03-17T14:49:37;21.95;;;11.90;;
66593;SDS011;53450;42.584;23.366;2024-03-17T14:52:02;22.75;;;15.55;;
66593;SDS011;53450;42.584;23.366;2024-03-17T14:54:30;19.10;;;12.05;;
66593;SDS011;53450;42.584;23.366;2024-03-17T14:56:56;27.42;;;16.33;;
66593;SDS011;53450;42.584;23.366;2024-03-17T14:59:22;32.67;;;18.35;;
66593;SDS011;53450;42.584;23.366;2024-03-17T15:01:48;26.40;;;16.05;;
66593;SDS011;53450;42.584;23.366;2024-03-17T15:04:14;33.58;;;20.90;;
66593;SDS011;53450;42.584;23.366;2024-03-17T15:06:40;45.67;;;22.38;;
66593;SDS011;53450;42.584;23.366;2024-03-17T15:09:08;27.20;;;14.80;;
66593;SDS011;53450;42.584;23.366;2024-03-17T15:11:34;17.85;;;10.63;;